Time;durP1;ratioP1;P1;durP2;ratioP2;P2;SDS_P1;SDS_P2;PMS_P1;PMS_P2;Temp;Humidity;BMP_temperature;BMP_pressure;BME280_temperature;BME280_humidity;BME280_pressure;Samples;Min_cycle;Max_cycle;Signal;HPM_P1;HPM_P2
2021/11/15 00:01:44;;;;;;;13.50;10.32;;;8.10;99.90;;;;;;5065497;28;20491;-69
2021/11/15 00:04:13;;;;;;;11.63;10.00;;;8.20;99.90;;;;;;5065449;28;20135;-69
2021/11/15 00:06:39;;;;;;;12.48;10.27;;;8.10;99.90;;;;;;5063553;28;20032;-68
2021/11/15 00:09:04;;;;;;;12.88;10.70;;;8.10;99.90;;;;;;5062459;28;20085;-69
2021/11/15 00:11:30;;;;;;;13.10;10.52;;;8.10;99.90;;;;;;5063364;28;20045;-69
2021/11/15 00:13:56;;;;;;;13.95;10.35;;;8.10;99.90;;;;;;5065543;28;20028;-69
2021/11/15 00:16:22;;;;;;;14.45;11.05;;;8.10;99.90;;;;;;5061380;28;20041;-68
2021/11/15 00:18:48;;;;;;;12.02;10.23;;;8.10;99.90;;;;;;5056140;28;20504;-69
2021/11/15 00:21:14;;;;;;;15.25;10.60;;;8.10;99.90;;;;;;5061692;28;20109;-69
2021/11/15 00:23:39;;;;;;;14.18;10.70;;;8.00;99.90;;;;;;5056206;28;21004;-69
2021/11/15 00:26:05;;;;;;;12.57;10.68;;;8.10;99.90;;;;;;5060862;28;20044;-69
2021/11/15 00:28:30;;;;;;;15.65;11.73;;;8.10;99.90;;;;;;5040347;28;20562;-69
2021/11/15 00:30:56;;;;;;;15.80;11.13;;;8.10;99.90;;;;;;5061328;28;20407;-69
2021/11/15 00:33:22;;;;;;;15.25;10.60;;;8.00;99.90;;;;;;5060442;28;20102;-69
2021/11/15 00:35:47;;;;;;;15.38;11.00;;;8.00;99.90;;;;;;5059837;28;20041;-69
2021/11/15 00:38:13;;;;;;;15.10;10.75;;;8.10;99.90;;;;;;5056553;28;20055;-69
2021/11/15 00:40:39;;;;;;;16.95;11.57;;;8.10;99.90;;;;;;5093754;28;20040;-69
2021/11/15 00:43:06;;;;;;;14.65;10.85;;;8.10;99.90;;;;;;5059970;28;20037;-69
2021/11/15 00:45:34;;;;;;;13.25;11.40;;;8.20;99.90;;;;;;5060685;28;20054;-69
2021/11/15 00:48:00;;;;;;;17.90;11.80;;;8.10;99.90;;;;;;5057113;28;20044;-69
2021/11/15 00:50:25;;;;;;;17.95;12.40;;;8.20;99.90;;;;;;5057281;28;20048;-69
2021/11/15 00:52:52;;;;;;;22.83;13.45;;;8.20;99.90;;;;;;5058549;28;20453;-69
2021/11/15 00:55:18;;;;;;;16.30;13.25;;;8.10;99.90;;;;;;5060137;28;20112;-69
2021/11/15 00:57:44;;;;;;;17.08;12.70;;;8.60;99.90;;;;;;5091941;28;20075;-69
2021/11/15 01:00:16;;;;;;;18.02;13.35;;;8.20;99.90;;;;;;5058523;28;20029;-69
2021/11/15 01:02:42;;;;;;;17.35;13.50;;;8.20;99.90;;;;;;5059090;28;20051;-69
2021/11/15 01:05:08;;;;;;;19.48;13.55;;;8.10;99.90;;;;;;5059643;28;20044;-69
2021/11/15 01:07:34;;;;;;;18.48;13.65;;;8.10;99.90;;;;;;5058434;28;20051;-69
2021/11/15 01:10:00;;;;;;;21.65;14.13;;;8.10;99.90;;;;;;5057315;28;20048;-69
2021/11/15 01:12:26;;;;;;;25.95;14.82;;;8.10;99.90;;;;;;5058219;28;20052;-69
2021/11/15 01:14:51;;;;;;;22.25;14.10;;;8.10;99.90;;;;;;5044818;28;20430;-68
2021/11/15 01:17:17;;;;;;;27.13;15.75;;;8.10;99.90;;;;;;5059828;28;20044;-69
2021/11/15 01:19:43;;;;;;;30.15;17.95;;;8.10;99.90;;;;;;5058141;28;20053;-69
2021/11/15 01:22:09;;;;;;;32.40;18.27;;;8.00;99.90;;;;;;5060496;28;20611;-68
2021/11/15 01:24:34;;;;;;;37.35;19.23;;;7.90;99.90;;;;;;5059186;28;20036;-68
2021/11/15 01:27:00;;;;;;;33.58;19.52;;;7.90;99.90;;;;;;5061053;28;20052;-69
2021/11/15 01:29:26;;;;;;;41.55;21.05;;;7.80;99.90;;;;;;5056813;28;20092;-68
2021/11/15 01:31:56;;;;;;;34.63;19.98;;;7.90;99.90;;;;;;5058833;28;20646;-69
2021/11/15 01:34:25;;;;;;;40.58;20.58;;;7.80;99.90;;;;;;5058898;28;20055;-69
2021/11/15 01:36:52;;;;;;;42.15;21.67;;;7.80;99.90;;;;;;5060974;28;20040;-69
2021/11/15 01:39:18;;;;;;;42.00;20.92;;;7.80;99.90;;;;;;5057722;28;20045;-69
2021/11/15 01:41:43;;;;;;;37.83;20.83;;;7.80;99.90;;;;;;5059496;28;20032;-69
2021/11/15 01:44:09;;;;;;;37.20;21.08;;;7.80;99.90;;;;;;5057898;28;20494;-68
2021/11/15 01:46:35;;;;;;;37.47;22.25;;;7.80;99.90;;;;;;5056982;28;20037;-69
2021/11/15 01:49:00;;;;;;;44.25;21.85;;;7.80;99.90;;;;;;5039510;28;20131;-68
2021/11/15 01:51:26;;;;;;;40.75;22.48;;;7.80;99.90;;;;;;5056589;28;20090;-68
2021/11/15 01:53:52;;;;;;;40.88;20.92;;;7.90;99.90;;;;;;5059778;28;20418;-69
2021/11/15 01:56:18;;;;;;;40.65;21.98;;;7.90;99.90;;;;;;5061760;28;20047;-68
2021/11/15 01:58:44;;;;;;;43.05;22.95;;;7.90;99.90;;;;;;5055670;28;20049;-69
2021/11/15 02:01:10;;;;;;;45.35;23.05;;;7.90;99.90;;;;;;5060982;28;20101;-69
2021/11/15 02:03:36;;;;;;;42.45;22.83;;;7.90;99.90;;;;;;5059323;28;20048;-69
2021/11/15 02:06:03;;;;;;;39.72;20.38;;;7.90;99.90;;;;;;5059689;28;20424;-68
2021/11/15 02:08:29;;;;;;;43.80;22.25;;;7.80;99.90;;;;;;5057929;28;20390;-68
2021/11/15 02:10:55;;;;;;;40.67;20.83;;;7.90;99.90;;;;;;5063569;28;20029;-69
2021/11/15 02:13:22;;;;;;;38.85;20.90;;;7.90;99.90;;;;;;5061543;28;20036;-69
2021/11/15 02:15:49;;;;;;;35.60;20.48;;;7.90;99.90;;;;;;5061926;28;20045;-69
2021/11/15 02:18:16;;;;;;;37.92;20.40;;;7.80;99.90;;;;;;5090074;28;20078;-69
2021/11/15 02:20:49;;;;;;;31.40;18.55;;;7.80;99.90;;;;;;5055958;28;20055;-68
2021/11/15 02:23:16;;;;;;;28.70;16.83;;;7.80;99.90;;;;;;5058292;28;20045;-69
2021/11/15 02:25:43;;;;;;;30.17;16.50;;;7.70;99.90;;;;;;5091286;28;20036;-69
2021/11/15 02:28:08;;;;;;;27.10;16.13;;;7.70;99.90;;;;;;5057130;28;20126;-68
2021/11/15 02:30:34;;;;;;;33.83;16.75;;;7.70;99.90;;;;;;5059078;28;20044;-69
2021/11/15 02:33:01;;;;;;;27.48;16.35;;;7.70;99.90;;;;;;5060027;28;20106;-69
2021/11/15 02:35:26;;;;;;;27.83;16.83;;;7.70;99.90;;;;;;5059391;28;20051;-68
2021/11/15 02:37:52;;;;;;;24.45;16.10;;;7.70;99.90;;;;;;5056301;28;20044;-69
2021/11/15 02:40:22;;;;;;;27.63;16.80;;;7.70;99.90;;;;;;5058290;28;20067;-69
2021/11/15 02:42:48;;;;;;;24.52;15.90;;;7.70;99.90;;;;;;5060796;28;20083;-69
2021/11/15 02:45:16;;;;;;;27.40;16.25;;;7.70;99.90;;;;;;5061781;28;20156;-68
2021/11/15 02:47:42;;;;;;;28.95;16.50;;;7.70;99.90;;;;;;5056997;28;20029;-69
2021/11/15 02:50:13;;;;;;;27.98;16.45;;;7.70;99.90;;;;;;5054912;28;20079;-68
2021/11/15 02:52:42;;;;;;;32.03;16.48;;;7.60;99.90;;;;;;5059816;28;20038;-68
2021/11/15 02:55:08;;;;;;;28.92;15.98;;;7.60;99.90;;;;;;5060071;28;20113;-68
2021/11/15 02:57:34;;;;;;;31.23;19.23;;;7.50;99.90;;;;;;5069286;28;20145;-68
2021/11/15 03:00:00;;;;;;;33.22;17.80;;;7.50;99.90;;;;;;5058487;28;20122;-68
2021/11/15 03:02:26;;;;;;;31.27;18.02;;;7.50;99.90;;;;;;5064681;28;20485;-68
2021/11/15 03:04:52;;;;;;;36.80;19.58;;;7.50;99.90;;;;;;5062461;28;20972;-68
2021/11/15 03:07:18;;;;;;;32.15;18.65;;;7.50;99.90;;;;;;5060795;28;20067;-69
2021/11/15 03:09:43;;;;;;;34.00;19.92;;;7.50;99.90;;;;;;5060497;28;20041;-69
2021/11/15 03:12:09;;;;;;;35.45;18.75;;;7.50;99.90;;;;;;5059085;28;20052;-69
2021/11/15 03:14:35;;;;;;;33.20;18.60;;;7.40;99.90;;;;;;5062024;28;20044;-69
2021/11/15 03:17:02;;;;;;;33.58;18.67;;;7.40;99.90;;;;;;5060913;28;20049;-69
2021/11/15 03:19:27;;;;;;;27.33;15.82;;;7.40;99.90;;;;;;5059415;28;20797;-69
2021/11/15 03:21:53;;;;;;;28.77;16.70;;;7.40;99.90;;;;;;5063199;28;20048;-68
2021/11/15 03:24:18;;;;;;;39.00;22.73;;;7.40;99.90;;;;;;5065184;28;20455;-68
2021/11/15 03:26:44;;;;;;;36.17;20.35;;;7.40;99.90;;;;;;5093880;28;20074;-69
2021/11/15 03:29:10;;;;;;;36.72;20.90;;;7.40;99.90;;;;;;5057195;28;20074;-69
2021/11/15 03:31:38;;;;;;;39.55;21.58;;;7.40;99.90;;;;;;5062607;28;20123;-69
2021/11/15 03:34:10;;;;;;;38.08;20.90;;;7.30;99.90;;;;;;5064152;28;20482;-69
2021/11/15 03:36:39;;;;;;;33.78;19.63;;;7.30;99.90;;;;;;5065660;28;20109;-69
2021/11/15 03:39:07;;;;;;;29.27;18.98;;;7.40;99.90;;;;;;5058959;28;20090;-69
2021/11/15 03:41:35;;;;;;;30.60;17.38;;;7.30;99.90;;;;;;5097718;28;20056;-69
2021/11/15 03:44:14;;;;;;;29.55;16.48;;;7.30;99.90;;;;;;5097233;28;20037;-69
2021/11/15 03:46:40;;;;;;;24.55;14.55;;;7.30;99.90;;;;;;5081789;28;20072;-68
2021/11/15 03:49:06;;;;;;;26.15;16.23;;;7.30;99.90;;;;;;5062614;28;20032;-68
2021/11/15 03:51:34;;;;;;;25.35;15.18;;;7.30;99.90;;;;;;5064571;28;20035;-68
2021/11/15 03:54:00;;;;;;;24.30;13.95;;;7.30;99.90;;;;;;5096773;27;20075;-68
2021/11/15 03:56:27;;;;;;;21.95;13.43;;;7.30;99.90;;;;;;5063883;28;20127;-68
2021/11/15 03:58:55;;;;;;;25.75;14.40;;;7.20;99.90;;;;;;5061378;28;20041;-69
2021/11/15 04:01:25;;;;;;;23.55;13.88;;;7.30;99.90;;;;;;5062997;28;20152;-68
2021/11/15 04:03:54;;;;;;;19.75;12.63;;;7.20;99.90;;;;;;5065701;28;20450;-68
2021/11/15 04:06:27;;;;;;;19.95;12.27;;;7.20;99.90;;;;;;5063502;28;20090;-68
2021/11/15 04:08:59;;;;;;;23.77;12.80;;;7.20;99.90;;;;;;5061303;28;20049;-68
2021/11/15 04:11:28;;;;;;;26.25;14.85;;;7.20;99.90;;;;;;5062829;28;20102;-69
2021/11/15 04:13:58;;;;;;;23.83;13.05;;;7.10;99.90;;;;;;5061958;28;20036;-68
2021/11/15 04:16:24;;;;;;;22.83;13.95;;;7.10;99.90;;;;;;5062193;28;20041;-68
2021/11/15 04:19:00;;;;;;;21.60;12.77;;;7.10;99.90;;;;;;5058978;28;20052;-68
2021/11/15 04:21:27;;;;;;;;;;;7.10;99.90;;;;;;5048356;28;20402;-68
2021/11/15 04:23:53;;;;;;;22.63;12.10;;;7.00;99.90;;;;;;5066328;28;20440;-69
2021/11/15 04:26:19;;;;;;;24.02;13.05;;;7.00;99.90;;;;;;5062701;28;20039;-68
2021/11/15 04:28:44;;;;;;;19.92;12.13;;;7.00;99.90;;;;;;5058848;28;20041;-68
2021/11/15 04:31:10;;;;;;;21.67;12.40;;;7.00;99.90;;;;;;5064492;28;20052;-68
2021/11/15 04:33:36;;;;;;;23.83;12.93;;;6.90;99.90;;;;;;5060674;28;20050;-69
2021/11/15 04:36:02;;;;;;;23.92;13.85;;;7.00;99.90;;;;;;5063940;28;20040;-68
2021/11/15 04:38:28;;;;;;;23.35;13.50;;;7.00;99.90;;;;;;5058560;28;21078;-69
2021/11/15 04:40:53;;;;;;;22.20;13.55;;;6.90;99.90;;;;;;5061863;28;20111;-69
2021/11/15 04:43:19;;;;;;;23.08;13.63;;;6.90;99.90;;;;;;5065933;28;20044;-69
2021/11/15 04:45:46;;;;;;;26.30;13.85;;;6.90;99.90;;;;;;5063141;28;21267;-68
2021/11/15 04:48:14;;;;;;;26.27;14.43;;;7.00;99.90;;;;;;5061087;28;20226;-68
2021/11/15 04:50:40;;;;;;;24.17;14.05;;;6.90;99.90;;;;;;5061119;28;20047;-68
2021/11/15 04:53:06;;;;;;;28.17;13.80;;;7.00;99.90;;;;;;5061321;28;20048;-69
2021/11/15 04:55:31;;;;;;;26.65;14.48;;;7.00;99.90;;;;;;5062407;28;20037;-68
2021/11/15 04:57:57;;;;;;;25.88;13.93;;;7.00;99.90;;;;;;5061222;28;20040;-69
2021/11/15 05:00:26;;;;;;;25.77;14.50;;;6.90;99.90;;;;;;5094658;28;20045;-69
2021/11/15 05:02:54;;;;;;;24.60;14.63;;;6.90;99.90;;;;;;5062890;28;20064;-68
2021/11/15 05:05:20;;;;;;;23.55;14.18;;;7.00;99.90;;;;;;5063608;28;20037;-69
2021/11/15 05:07:47;;;;;;;29.55;15.50;;;7.00;99.90;;;;;;5060239;28;20045;-68
2021/11/15 05:10:15;;;;;;;27.48;14.27;;;7.00;99.90;;;;;;5060869;28;20029;-69
2021/11/15 05:12:41;;;;;;;26.75;14.02;;;7.00;99.90;;;;;;5059802;28;20056;-69
2021/11/15 05:15:12;;;;;;;26.58;14.75;;;7.00;99.90;;;;;;5061828;28;20495;-69
2021/11/15 05:17:39;;;;;;;26.73;13.73;;;6.90;99.90;;;;;;5061840;28;20137;-69
2021/11/15 05:20:07;;;;;;;26.25;13.27;;;6.90;99.90;;;;;;5058176;28;20044;-69
2021/11/15 05:22:34;;;;;;;28.73;14.43;;;6.90;99.90;;;;;;5063499;28;20128;-69
2021/11/15 05:25:00;;;;;;;26.42;14.32;;;6.90;99.90;;;;;;5063259;28;20044;-69
2021/11/15 05:27:26;;;;;;;29.67;14.75;;;6.90;99.90;;;;;;5058638;28;20051;-69
2021/11/15 05:29:51;;;;;;;29.65;15.40;;;6.90;99.90;;;;;;5061394;28;20032;-69
2021/11/15 05:32:17;;;;;;;30.38;15.50;;;6.90;99.90;;;;;;5063096;28;20037;-69
2021/11/15 05:34:43;;;;;;;31.13;15.30;;;6.90;99.90;;;;;;5061706;28;20036;-69
2021/11/15 05:37:08;;;;;;;29.85;14.60;;;6.90;99.90;;;;;;5060864;28;20079;-69
2021/11/15 05:39:34;;;;;;;28.92;14.95;;;6.80;99.90;;;;;;5057976;28;20044;-68
2021/11/15 05:42:00;;;;;;;33.35;14.25;;;6.80;99.90;;;;;;5057827;28;20049;-69
2021/11/15 05:44:26;;;;;;;31.33;14.68;;;6.80;99.90;;;;;;5094360;28;20631;-69
2021/11/15 05:46:52;;;;;;;34.80;16.38;;;6.80;99.90;;;;;;5060576;28;20119;-69
2021/11/15 05:49:18;;;;;;;28.58;14.80;;;6.80;99.90;;;;;;5058495;28;20045;-69
2021/11/15 05:51:44;;;;;;;32.30;16.17;;;6.80;99.90;;;;;;5062939;28;20537;-69
2021/11/15 05:54:10;;;;;;;31.77;16.40;;;6.90;99.90;;;;;;5060281;28;20131;-69
2021/11/15 05:56:36;;;;;;;31.35;15.48;;;6.70;99.90;;;;;;5058844;28;20037;-69
2021/11/15 05:59:02;;;;;;;28.52;15.02;;;6.70;99.90;;;;;;5056769;28;20040;-69
2021/11/15 06:01:28;;;;;;;31.75;16.35;;;6.80;99.90;;;;;;5057382;28;20135;-69
2021/11/15 06:03:53;;;;;;;35.10;16.60;;;6.80;99.90;;;;;;5060856;28;20072;-69
2021/11/15 06:06:20;;;;;;;30.13;15.70;;;6.80;99.90;;;;;;5060291;28;20072;-69
2021/11/15 06:08:46;;;;;;;29.40;16.40;;;6.70;99.90;;;;;;5055671;28;20556;-69
2021/11/15 06:11:11;;;;;;;32.03;16.67;;;6.70;99.90;;;;;;5057081;28;20048;-69
2021/11/15 06:13:37;;;;;;;33.05;16.88;;;6.70;99.90;;;;;;5058740;28;20039;-69
2021/11/15 06:16:03;;;;;;;35.70;17.05;;;6.70;99.90;;;;;;5044964;28;21759;-69
2021/11/15 06:18:28;;;;;;;34.85;17.05;;;6.70;99.90;;;;;;5088485;28;20051;-69
2021/11/15 06:20:57;;;;;;;41.70;17.70;;;6.60;99.90;;;;;;5055700;28;20052;-69
2021/11/15 06:23:23;;;;;;;38.75;17.55;;;6.60;99.90;;;;;;5058352;28;20041;-69
2021/11/15 06:25:48;;;;;;;35.38;17.17;;;6.60;99.90;;;;;;5061017;28;20051;-69
2021/11/15 06:28:15;;;;;;;37.72;17.38;;;6.60;99.90;;;;;;5062881;28;20048;-69
2021/11/15 06:30:41;;;;;;;36.25;16.17;;;6.60;99.90;;;;;;5063298;28;20636;-69
2021/11/15 06:33:06;;;;;;;35.33;17.00;;;6.60;99.90;;;;;;5058809;28;20098;-69
2021/11/15 06:35:32;;;;;;;38.22;16.92;;;6.50;99.90;;;;;;5057138;28;20709;-69
2021/11/15 06:37:58;;;;;;;36.08;17.33;;;6.60;99.90;;;;;;5041051;28;20086;-69
2021/11/15 06:40:25;;;;;;;38.45;17.15;;;6.50;99.90;;;;;;5056820;28;20028;-69
2021/11/15 06:42:51;;;;;;;44.83;18.02;;;6.50;99.90;;;;;;5059547;28;20048;-69
2021/11/15 06:45:17;;;;;;;35.83;16.73;;;6.50;99.90;;;;;;5058164;28;20386;-69
2021/11/15 06:47:44;;;;;;;40.60;16.63;;;6.50;99.90;;;;;;5055990;28;20498;-70
2021/11/15 06:50:11;;;;;;;44.20;19.02;;;6.40;99.90;;;;;;5058925;28;20382;-70
2021/11/15 06:52:37;;;;;;;38.88;17.83;;;6.40;99.90;;;;;;5057598;28;20037;-69
2021/11/15 06:55:05;;;;;;;44.45;19.40;;;6.40;99.90;;;;;;5057541;28;20138;-69
2021/11/15 06:57:30;;;;;;;47.45;20.58;;;6.40;99.90;;;;;;5057726;28;20056;-69
2021/11/15 06:59:57;;;;;;;51.38;20.80;;;6.40;99.90;;;;;;5056292;28;20551;-69
2021/11/15 07:02:23;;;;;;;48.58;17.77;;;6.50;99.90;;;;;;5056533;28;20053;-69
2021/11/15 07:04:49;;;;;;;48.22;18.25;;;6.50;99.90;;;;;;5058320;28;20075;-69
2021/11/15 07:07:15;;;;;;;44.70;17.85;;;6.40;99.90;;;;;;5055727;28;20116;-69
2021/11/15 07:09:42;;;;;;;45.80;18.23;;;6.40;99.90;;;;;;5053808;28;20049;-69
2021/11/15 07:12:08;;;;;;;46.33;20.10;;;6.50;99.90;;;;;;5088216;28;20391;-69
2021/11/15 07:14:34;;;;;;;42.58;19.00;;;6.50;99.90;;;;;;5087748;28;20048;-69
2021/11/15 07:17:00;;;;;;;54.70;20.63;;;6.50;99.90;;;;;;5051108;28;21198;-69
2021/11/15 07:19:25;;;;;;;51.55;19.52;;;6.60;99.90;;;;;;5051635;28;20065;-69
2021/11/15 07:21:51;;;;;;;41.72;19.10;;;6.50;99.90;;;;;;5055086;28;20045;-69
2021/11/15 07:24:17;;;;;;;44.03;18.38;;;6.50;99.90;;;;;;5057417;28;20036;-69
2021/11/15 07:26:42;;;;;;;48.83;18.35;;;6.50;99.90;;;;;;5053234;28;20048;-69
2021/11/15 07:29:08;;;;;;;45.58;19.50;;;6.50;99.90;;;;;;5054540;28;20054;-69
2021/11/15 07:31:34;;;;;;;51.05;21.05;;;6.60;99.90;;;;;;5055102;28;20394;-68
2021/11/15 07:33:59;;;;;;;41.00;18.00;;;6.50;99.90;;;;;;5056362;28;20398;-68
2021/11/15 07:36:26;;;;;;;49.40;19.75;;;6.50;99.90;;;;;;5056321;28;20119;-68
2021/11/15 07:38:53;;;;;;;47.05;18.85;;;6.50;99.90;;;;;;5089281;28;20055;-69
2021/11/15 07:41:19;;;;;;;44.20;18.02;;;6.50;99.90;;;;;;5057153;28;20519;-69
2021/11/15 07:43:44;;;;;;;43.28;17.52;;;6.50;99.90;;;;;;5088531;28;20037;-69
2021/11/15 07:46:10;;;;;;;43.65;18.70;;;6.40;99.90;;;;;;5056577;28;20083;-69
2021/11/15 07:48:36;;;;;;;42.53;17.33;;;6.30;99.90;;;;;;5057301;28;20051;-69
2021/11/15 07:51:02;;;;;;;45.97;17.42;;;6.30;99.90;;;;;;5058447;28;20102;-69
2021/11/15 07:53:30;;;;;;;55.63;19.42;;;6.30;99.90;;;;;;5055299;28;20044;-69
2021/11/15 07:55:56;;;;;;;50.15;18.05;;;6.40;99.90;;;;;;5058215;28;20477;-69
2021/11/15 07:58:22;;;;;;;51.13;19.00;;;6.40;99.90;;;;;;5056723;28;20142;-69
2021/11/15 08:00:49;;;;;;;53.55;19.42;;;6.30;99.90;;;;;;5060340;28;20033;-69
2021/11/15 08:03:15;;;;;;;51.17;19.15;;;6.30;99.90;;;;;;5056793;28;22267;-69
2021/11/15 08:05:40;;;;;;;48.55;18.73;;;6.30;99.90;;;;;;5054923;28;20037;-69
2021/11/15 08:08:06;;;;;;;45.05;17.23;;;6.30;99.90;;;;;;5054023;28;20040;-69
2021/11/15 08:10:34;;;;;;;44.00;18.40;;;6.30;99.90;;;;;;5058373;28;20681;-69
2021/11/15 08:12:59;;;;;;;44.38;17.65;;;6.30;99.90;;;;;;5088330;28;20040;-69
2021/11/15 08:15:27;;;;;;;43.63;18.35;;;6.30;99.90;;;;;;5057507;28;20110;-69
2021/11/15 08:17:56;;;;;;;42.03;16.13;;;6.30;99.90;;;;;;5055023;28;20131;-69
2021/11/15 08:20:27;;;;;;;41.85;15.85;;;6.40;99.90;;;;;;5059641;28;20050;-69
2021/11/15 08:22:56;;;;;;;37.42;15.43;;;6.30;99.90;;;;;;5054483;28;20159;-69
2021/11/15 08:26:02;;;;;;;36.78;15.07;;;6.30;99.90;;;;;;5086099;27;20716;-69
2021/11/15 08:28:29;;;;;;;29.40;13.65;;;6.40;99.90;;;;;;5054446;28;20032;-69
2021/11/15 08:30:56;;;;;;;33.38;13.88;;;6.30;99.90;;;;;;5050678;28;20430;-69
2021/11/15 08:33:22;;;;;;;32.40;13.73;;;6.20;99.90;;;;;;5049212;28;20490;-69
2021/11/15 08:35:48;;;;;;;37.15;14.90;;;6.30;99.90;;;;;;5048653;28;20036;-69
2021/11/15 08:38:21;;;;;;;34.70;14.63;;;6.20;99.90;;;;;;5043147;28;20043;-69
2021/11/15 08:40:50;;;;;;;30.58;14.45;;;6.20;99.90;;;;;;5049199;28;20645;-69
2021/11/15 08:43:19;;;;;;;30.77;14.27;;;6.30;99.90;;;;;;5050915;28;20048;-69
2021/11/15 08:45:45;;;;;;;35.70;14.85;;;6.20;99.90;;;;;;5050124;28;20047;-69
2021/11/15 08:48:11;;;;;;;33.53;14.25;;;6.20;99.90;;;;;;5056269;28;20090;-69
2021/11/15 08:50:37;;;;;;;33.75;13.38;;;6.20;99.90;;;;;;5058266;28;20174;-69
2021/11/15 08:53:04;;;;;;;35.13;15.05;;;6.20;99.90;;;;;;5058949;28;20071;-69
2021/11/15 08:55:30;;;;;;;31.58;12.85;;;6.30;99.90;;;;;;5092779;28;20036;-69
2021/11/15 08:57:57;;;;;;;29.08;13.02;;;6.30;99.90;;;;;;5089994;28;20047;-69
2021/11/15 09:00:24;;;;;;;34.67;13.48;;;6.20;99.90;;;;;;5052813;28;20125;-69
2021/11/15 09:02:49;;;;;;;31.52;13.27;;;6.20;99.90;;;;;;5055093;28;20129;-69
2021/11/15 09:05:16;;;;;;;32.50;13.88;;;6.30;99.90;;;;;;5058009;28;21738;-69
2021/11/15 09:07:41;;;;;;;30.38;14.63;;;6.30;99.90;;;;;;5057054;28;20126;-69
2021/11/15 09:10:09;;;;;;;28.42;12.38;;;6.30;99.90;;;;;;5054051;28;20140;-69
2021/11/15 09:12:36;;;;;;;33.33;13.55;;;6.40;99.90;;;;;;5057072;28;20065;-69
2021/11/15 09:15:03;;;;;;;23.15;11.73;;;6.40;99.90;;;;;;5057125;28;20041;-69
2021/11/15 09:17:29;;;;;;;27.02;11.75;;;6.40;99.90;;;;;;5054468;28;20045;-69
2021/11/15 09:19:55;;;;;;;27.48;10.88;;;6.40;99.90;;;;;;5056354;28;20040;-69
2021/11/15 09:22:21;;;;;;;27.50;10.85;;;6.40;99.90;;;;;;5056325;28;20053;-69
2021/11/15 09:24:48;;;;;;;23.48;10.25;;;6.30;99.90;;;;;;5058596;28;20838;-69
2021/11/15 09:27:15;;;;;;;29.23;11.50;;;6.30;99.90;;;;;;5057929;28;20067;-69
2021/11/15 09:29:43;;;;;;;29.20;11.75;;;6.30;99.90;;;;;;5055284;28;20033;-69
2021/11/15 09:32:09;;;;;;;23.73;10.85;;;6.30;99.90;;;;;;5053896;28;20049;-69
2021/11/15 09:34:40;;;;;;;25.70;11.20;;;6.20;99.90;;;;;;5056334;28;20044;-69
2021/11/15 09:37:07;;;;;;;27.38;12.02;;;6.30;99.90;;;;;;5090089;28;20055;-69
2021/11/15 09:39:33;;;;;;;24.40;10.85;;;6.20;99.90;;;;;;5056263;28;20067;-69
2021/11/15 09:42:00;;;;;;;22.42;11.43;;;6.30;99.90;;;;;;5059952;28;20827;-69
2021/11/15 09:44:25;;;;;;;25.42;11.05;;;6.20;99.90;;;;;;5089111;28;20044;-69
2021/11/15 09:46:52;;;;;;;23.00;11.05;;;6.30;99.90;;;;;;5057037;28;20025;-69
2021/11/15 09:49:18;;;;;;;26.80;11.02;;;6.30;99.90;;;;;;5054830;28;21230;-69
2021/11/15 09:51:48;;;;;;;21.38;11.00;;;6.20;99.90;;;;;;5055072;28;20101;-69
2021/11/15 09:54:16;;;;;;;23.88;10.63;;;6.20;99.90;;;;;;5057593;28;20147;-69
2021/11/15 09:56:42;;;;;;;24.52;12.40;;;6.20;99.90;;;;;;5088725;28;20036;-69
2021/11/15 09:59:13;;;;;;;20.80;10.07;;;6.20;99.90;;;;;;5057057;28;20037;-69
2021/11/15 10:01:45;;;;;;;22.08;9.30;;;6.20;99.90;;;;;;5056044;28;20127;-69
2021/11/15 10:04:14;;;;;;;22.35;10.82;;;6.20;99.90;;;;;;5055224;28;20036;-69
2021/11/15 10:06:43;;;;;;;22.63;11.10;;;6.20;99.90;;;;;;5056527;28;20136;-69
2021/11/15 10:09:08;;;;;;;19.80;9.68;;;6.20;99.90;;;;;;5054062;28;20036;-69
2021/11/15 10:11:47;;;;;;;24.27;10.63;;;6.20;99.90;;;;;;5058316;28;20090;-69
2021/11/15 10:14:15;;;;;;;21.40;9.82;;;6.10;99.90;;;;;;5052697;28;20114;-69
2021/11/15 10:17:01;;;;;;;25.08;11.10;;;6.20;99.90;;;;;;5056149;28;20047;-69
2021/11/15 10:19:32;;;;;;;25.42;10.68;;;6.20;99.90;;;;;;5054906;28;20036;-69
2021/11/15 10:22:02;;;;;;;25.80;10.82;;;6.20;99.90;;;;;;5055809;28;20089;-69
2021/11/15 10:24:37;;;;;;;27.25;12.05;;;6.20;99.90;;;;;;5054970;28;20045;-69
2021/11/15 10:27:12;;;;;;;26.15;11.50;;;6.30;99.90;;;;;;5053675;28;20110;-69
2021/11/15 10:29:40;;;;;;;22.15;10.02;;;6.30;99.90;;;;;;5052672;28;20040;-69
2021/11/15 10:32:07;;;;;;;19.35;9.55;;;6.30;99.90;;;;;;5057381;28;20040;-69
2021/11/15 10:34:37;;;;;;;24.92;10.30;;;6.30;99.90;;;;;;5058537;28;20048;-69
2021/11/15 10:37:26;;;;;;;22.50;11.65;;;6.30;99.90;;;;;;5055846;28;20060;-69
2021/11/15 10:40:10;;;;;;;22.48;11.15;;;6.30;99.90;;;;;;5055126;28;20054;-69
2021/11/15 10:42:37;;;;;;;25.08;10.73;;;6.30;99.90;;;;;;5087210;28;20612;-69
2021/11/15 10:45:12;;;;;;;24.73;11.68;;;6.30;99.90;;;;;;5055430;28;20402;-69
2021/11/15 10:48:07;;;;;;;27.83;12.43;;;6.40;99.90;;;;;;5055003;28;20086;-69
2021/11/15 10:50:59;;;;;;;30.60;12.75;;;6.30;99.90;;;;;;5084370;28;20091;-69
2021/11/15 10:53:43;;;;;;;30.60;12.77;;;6.30;99.90;;;;;;5054607;28;20677;-69
2021/11/15 10:56:25;;;;;;;27.38;12.05;;;6.40;99.90;;;;;;5057326;28;20053;-69
2021/11/15 10:58:51;;;;;;;29.73;12.13;;;6.30;99.90;;;;;;5052597;28;20044;-69
2021/11/15 11:01:19;;;;;;;27.35;12.60;;;6.30;99.90;;;;;;5055579;28;20064;-69
2021/11/15 11:03:45;;;;;;;31.08;13.48;;;6.30;99.90;;;;;;5054563;28;20036;-69
2021/11/15 11:06:15;;;;;;;31.92;13.68;;;6.30;99.90;;;;;;5054440;28;20041;-69
2021/11/15 11:08:49;;;;;;;34.95;15.13;;;6.30;99.90;;;;;;5054161;28;20032;-69
2021/11/15 11:11:25;;;;;;;36.08;14.38;;;6.30;99.90;;;;;;5085338;28;20037;-69
2021/11/15 11:13:54;;;;;;;38.92;15.73;;;6.20;99.90;;;;;;5050402;28;22122;-69
2021/11/15 11:16:40;;;;;;;39.70;16.65;;;6.20;99.90;;;;;;5053390;28;20644;-69
2021/11/15 11:19:47;;;;;;;42.08;17.65;;;6.20;99.90;;;;;;5052198;28;20037;-69
2021/11/15 11:22:37;;;;;;;44.90;16.60;;;6.20;99.90;;;;;;5053057;28;20411;-69
2021/11/15 11:27:34;;;;;;;37.40;16.35;;;6.20;99.90;;;;;;5090605;27;20083;-69
2021/11/15 11:30:01;;;;;;;42.72;17.38;;;6.10;99.90;;;;;;5072688;28;21016;-69
2021/11/15 11:32:28;;;;;;;40.85;17.23;;;6.10;99.90;;;;;;5057912;28;20090;-69
2021/11/15 11:34:58;;;;;;;42.17;17.45;;;6.20;99.90;;;;;;5058854;28;20070;-69
2021/11/15 11:37:29;;;;;;;41.65;16.95;;;6.10;99.90;;;;;;5057660;28;20075;-69
2021/11/15 11:39:58;;;;;;;40.15;16.70;;;6.20;99.90;;;;;;5055921;28;20126;-69
2021/11/15 11:42:25;;;;;;;42.90;18.30;;;6.20;99.90;;;;;;5057688;28;20056;-69
2021/11/15 11:44:53;;;;;;;53.25;20.35;;;6.20;99.90;;;;;;5060052;28;20056;-69
2021/11/15 11:47:23;;;;;;;49.00;19.42;;;6.20;99.90;;;;;;5058131;28;20087;-69
2021/11/15 11:49:49;;;;;;;60.90;23.20;;;6.20;99.90;;;;;;5090130;28;20620;-69
2021/11/15 11:52:21;;;;;;;61.33;24.30;;;6.20;99.90;;;;;;5056199;28;20052;-69
2021/11/15 11:54:48;;;;;;;65.15;24.65;;;6.20;99.90;;;;;;5056936;28;20429;-69
2021/11/15 11:57:19;;;;;;;66.57;25.52;;;6.20;99.90;;;;;;5058653;28;20045;-69
2021/11/15 11:59:44;;;;;;;60.10;23.92;;;6.80;99.90;;;;;;5056477;28;20052;-69
2021/11/15 12:02:15;;;;;;;68.50;26.00;;;6.30;99.90;;;;;;5057916;28;20041;-69
2021/11/15 12:04:50;;;;;;;64.40;26.77;;;6.20;99.90;;;;;;5057345;28;20048;-69
2021/11/15 12:07:28;;;;;;;62.97;24.00;;;6.30;99.90;;;;;;5089584;28;20041;-69
2021/11/15 12:09:55;;;;;;;57.80;25.38;;;6.30;99.90;;;;;;5056925;28;20048;-69
2021/11/15 12:12:21;;;;;;;67.97;27.58;;;6.30;99.90;;;;;;5056960;28;20090;-69
2021/11/15 12:14:46;;;;;;;68.78;26.27;;;6.30;99.90;;;;;;5060803;28;20055;-69
2021/11/15 12:17:18;;;;;;;70.15;28.17;;;6.30;99.90;;;;;;5056552;28;20521;-69
2021/11/15 12:20:00;;;;;;;73.22;29.23;;;6.30;99.90;;;;;;5056083;28;20070;-69
2021/11/15 12:22:45;;;;;;;77.40;31.38;;;6.30;99.90;;;;;;5057026;28;20187;-69
2021/11/15 12:25:18;;;;;;;78.50;29.33;;;6.40;99.90;;;;;;5056479;28;20037;-69
2021/11/15 12:27:53;;;;;;;81.43;32.25;;;6.40;99.90;;;;;;5055000;28;20063;-69
2021/11/15 12:30:29;;;;;;;86.73;33.03;;;6.40;99.90;;;;;;5056570;28;20181;-69
2021/11/15 12:33:16;;;;;;;81.60;33.15;;;6.40;99.90;;;;;;5056424;28;20130;-69
2021/11/15 12:35:53;;;;;;;82.65;32.95;;;6.40;99.90;;;;;;5091227;28;20132;-69
2021/11/15 12:38:40;;;;;;;77.78;33.95;;;6.40;99.90;;;;;;5058683;28;20449;-69
2021/11/15 12:41:18;;;;;;;87.63;35.63;;;6.40;99.90;;;;;;5092843;28;20044;-69
2021/11/15 12:44:09;;;;;;;81.47;34.75;;;6.40;99.90;;;;;;5063276;28;20171;-69
2021/11/15 12:46:49;;;;;;;76.65;33.38;;;6.30;99.90;;;;;;5062963;28;20087;-69